Terminal Aerodrome Forecast
Issued by NWS

Home | Current Version | Previous Version | Text Only | Print | Product List | Glossary On
Versions: 1 2 3 4 5 6 7 8 9 10 11 12 13 14 15 16 17 18
000
FTUS46 KMFR 230500
TAFOTH
TAF
KOTH 230521Z 2306/2406 36008KT P6SM SKC
     FM231200 13003KT 2SM BR OVC002
     FM231600 02006KT P6SM FEW003
     FM231800 35013G20KT P6SM SKC
     FM232100 36020G30KT P6SM SKC
     FM240400 36015G22KT P6SM SKC=

USA.gov is the U.S. government's official web portal to all federal, state and local government web resources and services.